Flight Track Log - Related Links

Times and Time Zones

All times are in EDT time to prevent confusion due to time zone crossing. See the N695AB flight status page for this flight to view local times or setup timezone preferences in your user account.

Time Position Orientation Groundspeed Altitude Reporting Facility
EDT Latitude Longitude Course Direction KTS MPH feet Rate Location/Type
Wed 11:22:18 AM 39.1000 -94.6167 270° West 132 152 1,700  Level Kansas City TRACON
Wed 11:23:42 AM 39.1000 -94.6833 270° West 145 167 4,300 1,627 Climbing Kansas City TRACON
Wed 11:24:16 AM 39.0908 -94.6997 234° Southwest 142 163 4,900 1,532 Climbing Kansas City Center
Wed 11:25:16 AM 39.0772 -94.7572 253° West 150 173 6,700 1,065 Climbing Kansas City Center
Wed 11:26:20 AM 39.0331 -94.7889 209° Southwest 188 216 7,100 144 Climbing Kansas City Center
Wed 11:27:21 AM 38.9881 -94.8572 230° Southwest 256 295 7,000 48 Descending Kansas City Center
Wed 11:28:24 AM 38.9853 -94.9464 268° West 260 299 7,200 532 Climbing Kansas City Center
Wed 11:29:25 AM 39.0036 -95.0425 284° West 250 288 8,100 443 Climbing Kansas City Center
Wed 11:30:26 AM 39.0242 -95.1300 287° West 263 303 8,100 672 Level Kansas City Center
Wed 11:31:30 AM 39.0525 -95.2300 290° West 257 296 9,500 1,872 Climbing Kansas City Center
Wed 11:32:31 AM 39.0717 -95.2892 293° West 185 213 12,000 1,872 Climbing Kansas City Center
Wed 11:33:35 AM 39.0739 -95.3511 273° West 180 207 13,400 1,584 Climbing Kansas City Center
Wed 11:34:36 AM 39.0706 -95.4250 267° West 180 207 15,300 1,525 Climbing Kansas City Center
Wed 11:35:37 AM 39.0675 -95.4847 266° West 180 207 16,500 1,296 Climbing Kansas City Center
Wed 11:36:41 AM 39.0592 -95.5603 262° West 188 216 18,000 1,113 Climbing Kansas City Center
Wed 11:37:41 AM 39.0561 -95.6236 266° West 186 214 18,800 968 Climbing Kansas City Center
Wed 11:38:45 AM 39.0511 -95.7011 265° West 192 221 20,000 1,104 Climbing Kansas City Center
Wed 11:39:46 AM 39.0447 -95.7683 263° West 197 227 21,100 968 Climbing Kansas City Center
Wed 11:40:49 AM 39.0356 -95.8361 260° West 202 232 22,000 968 Climbing Kansas City Center
Wed 11:41:50 AM 39.0261 -95.9156 261° West 202 232 23,100 934 Climbing Kansas City Center
Wed 11:42:51 AM 39.0156 -95.9828 259° West 201 231 23,900 816 Climbing Kansas City Center
Wed 11:43:55 AM 39.0025 -96.0625 258° West 204 235 24,800 768 Climbing Kansas City Center
Wed 11:44:56 AM 38.9900 -96.1306 257° West 204 235 25,500 720 Climbing Kansas City Center
Wed 11:46:00 AM 38.9792 -96.2114 260° West 204 235 26,300 677 Climbing Kansas City Center
Wed 11:47:00 AM 38.9661 -96.2803 256° West 208 239 26,900 634 Climbing Kansas City Center
Wed 11:48:03 AM 38.9506 -96.3642 257° West 214 246 27,600 532 Climbing Kansas City Center
Wed 11:49:04 AM 38.9397 -96.4367 259° West 215 247 28,000 192 Climbing Kansas City Center
Wed 11:50:08 AM 38.9286 -96.5300 261° West 236 272 28,000 48 Level Kansas City Center
Wed 11:51:08 AM 38.9114 -96.6167 256° West 249 287 28,100 50 Climbing Kansas City Center
Wed 11:52:09 AM 38.8903 -96.7067 253° West 259 298 28,100 -96 Level Kansas City Center
Wed 11:53:13 AM 38.8739 -96.7972 257° West 262 302 27,900 -48 Descending Kansas City Center
Wed 11:54:13 AM 38.8594 -96.8936 259° West 272 313 28,000 48 Climbing Kansas City Center
Wed 11:55:17 AM 38.8469 -96.9886 260° West 272 313 28,000  Level Kansas City Center
Wed 11:56:19 AM 38.8350 -97.1033 262° West 271 312 28,000  Level Kansas City Center
Wed 11:57:20 AM 38.8211 -97.1992 259° West 273 314 28,000  Level Kansas City Center
Wed 11:58:23 AM 38.8108 -97.2964 262° West 276 318 28,000  Level Kansas City Center
Wed 11:59:25 AM 38.7994 -97.3925 261° West 274 315 28,000 48 Level Kansas City Center
Wed 12:00:28 PM 38.7944 -97.4894 266° West 273 314 28,100 242 Climbing Kansas City Center
Wed 12:01:29 PM 38.7925 -97.5975 269° West 264 304 28,500 246 Climbing Kansas City Center
Wed 12:02:30 PM 38.7836 -97.6853 263° West 260 299 28,600  Climbing Kansas City Center
Wed 12:03:33 PM 38.7733 -97.7889 263° West 262 302 28,500  Descending Kansas City Center
Wed 12:04:35 PM 38.7614 -97.8775 260° West 265 305 28,600 48 Climbing Kansas City Center
Wed 12:05:38 PM 38.7456 -97.9711 258° West 269 310 28,600  Level Kansas City Center
Wed 12:06:39 PM 38.7319 -98.0658 260° West 270 311 28,600 -48 Level Kansas City Center
Wed 12:07:42 PM 38.7222 -98.1803 264° West 271 312 28,500  Descending Kansas City Center
Wed 12:08:42 PM 38.7161 -98.2769 265° West 273 314 28,600 48 Climbing Kansas City Center
Wed 12:09:46 PM 38.7078 -98.3725 264° West 271 312 28,600 48 Level Kansas City Center
Wed 12:10:48 PM 38.6928 -98.4658 258° West 271 312 28,700 49 Climbing Kansas City Center
Wed 12:11:48 PM 38.6742 -98.5617 256° West 270 311 28,700  Level Kansas City Center
Wed 12:12:51 PM 38.6578 -98.6533 257° West 271 312 28,700  Level Kansas City Center
Wed 12:13:54 PM 38.6417 -98.7683 260° West 274 315 28,700 -48 Level Kansas City Center
Wed 12:14:55 PM 38.6347 -98.8644 265° West 274 315 28,600 -48 Descending Kansas City Center
Wed 12:15:58 PM 38.6217 -98.9619 260° West 277 319 28,600 -48 Level Kansas City Center
Wed 12:16:59 PM 38.6094 -99.0569 261° West 274 315 28,500 -48 Descending Kansas City Center
Wed 12:18:03 PM 38.6014 -99.1544 264° West 275 316 28,500  Level Kansas City Center
Wed 12:19:04 PM 38.5922 -99.2503 263° West 273 314 28,500  Level Kansas City Center
Wed 12:20:05 PM 38.5792 -99.3650 262° West 273 314 28,500  Level Kansas City Center
Wed 12:21:09 PM 38.5686 -99.4600 262° West 272 313 28,500  Level Kansas City Center
Wed 12:22:09 PM 38.5600 -99.5572 264° West 275 316 28,500 50 Level Kansas City Center
Wed 12:23:10 PM 38.5481 -99.6639 262° West 274 315 28,600 48 Climbing Kansas City Center
Wed 12:24:13 PM 38.5342 -99.7536 259° West 272 313 28,600 48 Level Kansas City Center
Wed 12:25:14 PM 38.5139 -99.8597 256° West 275 316 28,700  Climbing Kansas City Center
Wed 12:26:17 PM 38.4956 -99.9481 255° West 272 313 28,600 -96 Descending Kansas City Center
Wed 12:27:19 PM 38.4800 -100.0569 260° West 278 320 28,500 -48 Descending Kansas City Center
Wed 12:28:23 PM 38.4733 -100.1519 265° West 281 323 28,500  Level Kansas City Center
Wed 12:29:23 PM 38.4639 -100.2608 264° West 278 320 28,500  Level Kansas City Center
Wed 12:30:24 PM 38.4533 -100.3531 262° West 276 318 28,500  Level Kansas City Center
Wed 12:31:28 PM 38.4358 -100.4606 258° West 277 319 28,500  Level Kansas City Center
Wed 12:32:30 PM 38.4178 -100.5517 256° West 277 319 28,500  Level Kansas City Center
Wed 12:33:33 PM 38.3897 -100.6553 251° West 277 319 28,500  Level Kansas City Center
Wed 12:34:34 PM 38.3672 -100.7442 252° West 277 319 28,500 48 Level Kansas City Center
Wed 12:35:37 PM 38.3531 -100.8361 259° West 277 319 28,600 48 Climbing Kansas City Center
Wed 12:36:38 PM 38.3431 -100.9433 263° West 275 316 28,600  Level Kansas City Center
Wed 12:37:41 PM 38.3317 -101.0375 261° West 279 321 28,600 -97 Level Kansas City Center
Wed 12:38:42 PM 38.3144 -101.1425 258° West 276 318 28,400 -97 Descending Kansas City Center
Wed 12:39:45 PM 38.3006 -101.2344 259° West 276 318 28,400  Level Kansas City Center
Wed 12:40:45 PM 38.2872 -101.3433 261° West 279 321 28,400  Level Kansas City Center
Wed 12:41:49 PM 38.2717 -101.4364 258° West 280 322 28,400 48 Level Kansas City Center
Wed 12:42:49 PM 38.2519 -101.5431 257° West 278 320 28,500 145 Climbing Kansas City Center
Wed 12:43:53 PM 38.2369 -101.6353 258° West 278 320 28,700 -194 Climbing Kansas City Center
Wed 12:44:53 PM 38.2211 -101.7461 260° West 283 326 28,100 -339 Descending Kansas City Center
Wed 12:45:57 PM 38.2019 -101.8442 256° West 293 337 28,000 -48 Descending Kansas City Center
Wed 12:46:58 PM 38.1814 -101.9542 257° West 287 330 28,000  Level Kansas City Center
Wed 12:48:01 PM 38.1664 -102.0447 258° West 282 325 28,000  Level Kansas City Center
Wed 12:49:17 PM 38.1464 -102.1839 260° West 280 322 28,000  Level Denver Center
Wed 12:50:19 PM 38.1328 -102.2750 259° West 277 319 28,000  Level Denver Center
Wed 12:51:21 PM 38.1178 -102.3683 258° West 282 325 28,000  Level Denver Center
Wed 12:52:23 PM 38.1025 -102.4775 260° West 279 321 28,000 48 Level Denver Center
Wed 12:53:26 PM 38.0908 -102.5714 261° West 281 323 28,100  Climbing Denver Center
Wed 12:54:28 PM 38.0792 -102.6806 262° West 280 322 28,000  Descending Denver Center
Wed 12:55:30 PM 38.0672 -102.7742 261° West 281 323 28,100  Climbing Denver Center
Wed 12:56:32 PM 38.0531 -102.8817 261° West 277 319 28,000 -48 Descending Denver Center
Wed 12:57:34 PM 38.0336 -102.9728 255° West 279 321 28,000  Level Denver Center
Wed 12:58:36 PM 38.0072 -103.0808 253° West 280 322 28,000 48 Level Denver Center
Wed 12:59:38 PM 37.9844 -103.1700 252° West 277 319 28,100 -48 Climbing Denver Center
Wed 01:00:40 PM 37.9622 -103.2767 255° West 280 322 27,900 -48 Descending Denver Center
Wed 01:01:42 PM 37.9447 -103.3692 257° West 282 325 28,000 48 Climbing Denver Center
Wed 01:02:44 PM 37.9267 -103.4608 256° West 281 323 28,000  Level Denver Center
Wed 01:03:46 PM 37.9058 -103.5694 256° West 285 328 28,000  Level Denver Center
Wed 01:04:48 PM 37.8917 -103.6631 259° West 283 326 28,000  Level Denver Center
Wed 01:05:50 PM 37.8778 -103.7744 261° West 288 331 28,000  Level Denver Center
Wed 01:06:52 PM 37.8658 -103.8678 261° West 283 326 28,000 48 Level Denver Center
Wed 01:07:54 PM 37.8467 -103.9792 258° West 291 335 28,100  Climbing Denver Center
Wed 01:08:57 PM 37.8314 -104.0725 258° West 287 330 28,000 -48 Descending Denver Center
Wed 01:09:59 PM 37.8111 -104.1828 257° West 289 333 28,000  Level Denver Center
Wed 01:11:01 PM 37.7878 -104.2914 255° West 289 333 28,000 48 Level Denver Center
Wed 01:12:03 PM 37.7667 -104.3831 254° West 287 330 28,100 48 Climbing Denver Center
Wed 01:13:05 PM 37.7481 -104.4931 258° West 288 331 28,100 -48 Level Denver Center
Wed 01:14:07 PM 37.7297 -104.5875 256° West 289 333 28,000 -97 Descending Denver Center
Wed 01:15:09 PM 37.7100 -104.6797 255° West 286 329 27,900 -435 Descending Denver Center
Wed 01:16:11 PM 37.6806 -104.7933 252° West 301 346 27,100 -484 Descending Denver Center
Wed 01:17:13 PM 37.6525 -104.8922 250° West 310 357 26,900 -88 Descending Denver Center
Wed 01:18:28 PM 37.6286 -105.0236 257° West 303 349 26,900 88 Level Denver Center
Wed 01:19:30 PM 37.6117 -105.1336 259° West 289 333 27,100 97 Climbing Denver Center
Wed 01:20:32 PM 37.5942 -105.2289 257° West 290 334 27,100  Level Denver Center
Wed 01:21:34 PM 37.5719 -105.3397 256° West 292 336 27,100 -48 Level Denver Center
Wed 01:22:36 PM 37.5556 -105.4347 258° West 291 335 27,000 -484 Descending Denver Center
Wed 01:23:38 PM 37.5419 -105.5483 261° West 298 343 26,100 -919 Descending Denver Center
Wed 01:24:40 PM 37.5278 -105.6575 261° West 325 374 25,100 -1,210 Descending Denver Center
Wed 01:25:42 PM 37.5122 -105.7914 262° West 340 391 23,600 -1,065 Descending Denver Center
Wed 01:26:44 PM 37.4958 -105.9036 260° West 341 392 22,900 -629 Descending Denver Center
Wed 01:27:46 PM 37.4714 -106.0092 254° West 331 381 22,300 -387 Descending Denver Center
Wed 01:28:48 PM 37.4511 -106.1297 258° West 315 362 22,100 -339 Descending Denver Center
Wed 01:29:50 PM 37.4269 -106.2458 255° West 313 360 21,600 -339 Descending Denver Center
Wed 01:30:52 PM 37.4086 -106.3464 257° West 310 357 21,400 -290 Descending Denver Center
Wed 01:31:54 PM 37.3881 -106.4453 255° West 305 351 21,000 -677 Descending Denver Center
Wed 01:32:56 PM 37.3583 -106.5611 252° West 310 357 20,000 -1,056 Descending Denver Center
Wed 01:33:59 PM 37.3381 -106.6647 256° West 315 362 18,800 -1,200 Descending Denver Center
Wed 01:35:01 PM 37.3192 -106.7911 259° West 321 369 17,500 -1,258 Descending Denver Center
Wed 01:37:00 PM 37.2949 -106.9692 260° West  Level FlightAware Approximate
Wed 01:44:00 PM 37.2833 -107.0500 260° West  Level FlightAware Approximate
Wed 01:45:00 PM 37.2863 -107.0560 260° West  Level Estimated
Wed 01:46:00 PM 37.2833 -107.0500 260° West  Level FlightAware Approximate
Wed 01:47:00 PM 37.2863 -107.0560 260° West  Level Estimated
Wed 01:48:00 PM 37.2833 -107.0500 260° West  Level FlightAware Approximate
Wed 01:49:00 PM 37.2863 -107.0560 260° West  Level Estimated
Wed 01:50:00 PM 37.2833 -107.0500 260° West  Level FlightAware Approximate
Wed 01:51:00 PM 37.2863 -107.0560 260° West  Level Estimated
Wed 01:52:00 PM 37.2833 -107.0500 260° West  Level FlightAware Approximate
Wed 01:53:00 PM 37.2863 -107.0560 260° West  Level Estimated
Wed 01:54:00 PM 37.2833 -107.0500 260° West  Level FlightAware Approximate
Wed 01:55:00 PM 37.2863 -107.0560 260° West  Level Estimated

Login

Don't have an account? Register now (free) for customized features, flight alerts, and more!